Terminal Aerodrome Forecast
Issued by NWS Shreveport, LA

Home | Current Version | Previous Version | Text Only | Print | Product List | Glossary On
Versions: 1 2 3 4 5 6 7 8 9 10 11 12 13 14
000
FTUS44 KSHV 252300
TAFLFK
TAF
KLFK 252339Z 2600/2624 09004KT P6SM FEW045
     FM260300 16004KT P6SM SKC
     FM261100 00000KT 4SM BR SKC
     FM261400 21006KT P6SM FEW250=

USA.gov is the U.S. government's official web portal to all federal, state and local government web resources and services.